Portada
METAR-TAF:

METAR-TAF

Aeroports :

Évreux, França

latitud: 49-01N, longitud: 001-13E, altitud: 141 m

Observació

L'informe es va fer fa 37 minuts, a les 10:30 UTC
Vent 2 kt amb direcció variable
Temperatura 21°C
Humitat 49%
Pressió 1024 hPa
Visibilitat 10 km o més
sense núvols per sota de 1500 mi sense presència de cumulonimbus.

METAR: LFOE 091030Z AUTO VRB02KT CAVOK 21/10 Q1024 NOSIG

Hora: 13:07 (11:07 UTC)

Pronòstic

L'informe es va fer fa 3 hores i 7 minuts, a les 08:00 UTC
Pronòstic vàlid del 09 a les 09 UTC al 10 a les 09 UTC
Vent 3 kt amb direcció variable
Visibilitat 10 km o més
sense núvols per sota de 1500 mi sense presència de cumulonimbus.
Evolucionant progressivament
l' 09 a les 09 UTC al 09 a les 11 UTC
Vent 10 kt del Est/Nord-Est
Temporalment
l' 09 a les 12 UTC al 09 a les 18 UTC
Vent 10 kt del Sud-Est

TAF: LFOE 090800Z 0909/1009 VRB03KT CAVOK BECMG 0909/0911 07010KT TEMPO 0912/0918 13010KT

Observacions i pronòstics meteorològics de més de 4000 aeroports (METAR i TAF).

Les estacions disponibles són els punts grocs i vermells al mapa.

Posi el ratolí al punt desitjat per veure el nom de l'estació.

Feu clic per veure les observacions i els pronòstics meteorològics.

Per canviar el mapa: feu clic els botons verds amb una creu de color negre per apropar; al botó verd amb un guió per allunyar la imatge; o en les fletxes verdes per a mapes adjacents.


METAR-TAF: